Terminal Aerodrome Forecast
Issued by NWS

Home | Current Version | Previous Version | Text Only | Print | Product List | Glossary On
Versions: 1 2 3 4 5 6 7 8 9 10 11 12 13 14 15 16 17 18 19 20 21 22
000
FTUS44 KSJT 231135
TAFSOA
TAF
KSOA 231135Z 2312/2412 01010KT P6SM BKN025
     FM231600 02010KT P6SM VCTS BKN035CB
     FM231900 01012G21KT P6SM VCTS BKN035CB
     FM240100 VRB05KT P6SM SCT250=

USA.gov is the U.S. government's official web portal to all federal, state and local government web resources and services.